sensor_id;sensor_type;location;lat;lon;timestamp;temperature;humidity
13898;DHT22;7019;50.766;4.474;2023-07-13T00:00:49;15.40;99.90
13898;DHT22;7019;50.766;4.474;2023-07-13T00:03:16;15.30;99.90
13898;DHT22;7019;50.766;4.474;2023-07-13T00:05:43;15.40;99.90
13898;DHT22;7019;50.766;4.474;2023-07-13T00:08:10;15.40;99.90
13898;DHT22;7019;50.766;4.474;2023-07-13T00:10:42;15.40;99.90
13898;DHT22;7019;50.766;4.474;2023-07-13T00:13:10;15.40;99.90
13898;DHT22;7019;50.766;4.474;2023-07-13T00:15:37;15.40;99.90
13898;DHT22;7019;50.766;4.474;2023-07-13T00:18:04;15.30;99.90
13898;DHT22;7019;50.766;4.474;2023-07-13T00:20:31;15.30;99.90
13898;DHT22;7019;50.766;4.474;2023-07-13T00:22:59;15.20;99.90
13898;DHT22;7019;50.766;4.474;2023-07-13T00:25:26;15.20;99.90
13898;DHT22;7019;50.766;4.474;2023-07-13T00:27:55;15.10;99.90
13898;DHT22;7019;50.766;4.474;2023-07-13T00:30:22;15.10;99.90
13898;DHT22;7019;50.766;4.474;2023-07-13T00:32:49;15.00;99.90
13898;DHT22;7019;50.766;4.474;2023-07-13T00:35:17;15.00;99.90
13898;DHT22;7019;50.766;4.474;2023-07-13T00:37:44;15.00;99.90
13898;DHT22;7019;50.766;4.474;2023-07-13T00:40:13;15.00;99.90
13898;DHT22;7019;50.766;4.474;2023-07-13T00:42:41;14.90;99.90
13898;DHT22;7019;50.766;4.474;2023-07-13T00:48:10;15.00;99.90
13898;DHT22;7019;50.766;4.474;2023-07-13T00:50:38;14.90;99.90
13898;DHT22;7019;50.766;4.474;2023-07-13T00:53:06;14.90;99.90
13898;DHT22;7019;50.766;4.474;2023-07-13T00:55:34;14.90;99.90
13898;DHT22;7019;50.766;4.474;2023-07-13T00:58:01;14.90;99.90
13898;DHT22;7019;50.766;4.474;2023-07-13T01:00:30;14.90;99.90
13898;DHT22;7019;50.766;4.474;2023-07-13T01:02:57;14.90;99.90
13898;DHT22;7019;50.766;4.474;2023-07-13T01:05:26;14.90;99.90
13898;DHT22;7019;50.766;4.474;2023-07-13T01:07:53;14.80;99.90
13898;DHT22;7019;50.766;4.474;2023-07-13T01:10:22;14.70;99.90
13898;DHT22;7019;50.766;4.474;2023-07-13T01:12:49;14.70;99.90
13898;DHT22;7019;50.766;4.474;2023-07-13T01:15:36;14.70;99.90
13898;DHT22;7019;50.766;4.474;2023-07-13T01:18:04;14.70;99.90
13898;DHT22;7019;50.766;4.474;2023-07-13T01:20:33;14.70;99.90
13898;DHT22;7019;50.766;4.474;2023-07-13T01:23:04;14.70;99.90
13898;DHT22;7019;50.766;4.474;2023-07-13T01:25:32;14.70;99.90
13898;DHT22;7019;50.766;4.474;2023-07-13T01:27:59;14.70;99.90
13898;DHT22;7019;50.766;4.474;2023-07-13T01:30:26;14.60;99.90
13898;DHT22;7019;50.766;4.474;2023-07-13T01:32:53;14.60;99.90
13898;DHT22;7019;50.766;4.474;2023-07-13T01:35:20;14.60;99.90
13898;DHT22;7019;50.766;4.474;2023-07-13T01:37:47;14.60;99.90
13898;DHT22;7019;50.766;4.474;2023-07-13T01:40:16;14.60;99.90
13898;DHT22;7019;50.766;4.474;2023-07-13T01:42:43;14.60;99.90
13898;DHT22;7019;50.766;4.474;2023-07-13T01:45:10;14.60;99.90
13898;DHT22;7019;50.766;4.474;2023-07-13T01:47:37;14.60;99.90
13898;DHT22;7019;50.766;4.474;2023-07-13T01:50:05;14.60;99.90
13898;DHT22;7019;50.766;4.474;2023-07-13T01:52:32;14.50;99.90
13898;DHT22;7019;50.766;4.474;2023-07-13T01:54:59;14.50;99.90
13898;DHT22;7019;50.766;4.474;2023-07-13T01:57:28;14.50;99.90
13898;DHT22;7019;50.766;4.474;2023-07-13T01:59:55;14.40;99.90
13898;DHT22;7019;50.766;4.474;2023-07-13T02:02:22;14.40;99.90
13898;DHT22;7019;50.766;4.474;2023-07-13T02:04:49;14.40;99.90
13898;DHT22;7019;50.766;4.474;2023-07-13T02:07:16;14.40;99.90
13898;DHT22;7019;50.766;4.474;2023-07-13T02:09:43;14.30;99.90
13898;DHT22;7019;50.766;4.474;2023-07-13T02:12:10;14.30;99.90
13898;DHT22;7019;50.766;4.474;2023-07-13T02:14:39;14.30;99.90
13898;DHT22;7019;50.766;4.474;2023-07-13T02:17:06;14.40;99.90
13898;DHT22;7019;50.766;4.474;2023-07-13T02:19:33;14.40;99.90
13898;DHT22;7019;50.766;4.474;2023-07-13T02:22:00;14.40;99.90
13898;DHT22;7019;50.766;4.474;2023-07-13T02:24:27;14.40;99.90
13898;DHT22;7019;50.766;4.474;2023-07-13T02:26:54;14.40;99.90
13898;DHT22;7019;50.766;4.474;2023-07-13T02:29:21;14.30;99.90
13898;DHT22;7019;50.766;4.474;2023-07-13T02:31:50;14.40;99.90
13898;DHT22;7019;50.766;4.474;2023-07-13T02:34:17;14.30;99.90
13898;DHT22;7019;50.766;4.474;2023-07-13T02:36:44;14.30;99.90
13898;DHT22;7019;50.766;4.474;2023-07-13T02:39:12;14.30;99.90
13898;DHT22;7019;50.766;4.474;2023-07-13T02:41:39;14.30;99.90
13898;DHT22;7019;50.766;4.474;2023-07-13T02:44:06;14.30;99.90
13898;DHT22;7019;50.766;4.474;2023-07-13T02:46:36;14.20;99.90
13898;DHT22;7019;50.766;4.474;2023-07-13T02:49:04;14.20;99.90
13898;DHT22;7019;50.766;4.474;2023-07-13T02:51:32;14.20;99.90
13898;DHT22;7019;50.766;4.474;2023-07-13T02:54:00;14.10;99.90
13898;DHT22;7019;50.766;4.474;2023-07-13T02:56:28;14.10;99.90
13898;DHT22;7019;50.766;4.474;2023-07-13T02:58:56;14.10;99.90
13898;DHT22;7019;50.766;4.474;2023-07-13T03:01:24;14.10;99.90
13898;DHT22;7019;50.766;4.474;2023-07-13T03:03:51;14.10;99.90
13898;DHT22;7019;50.766;4.474;2023-07-13T03:06:20;14.10;99.90
13898;DHT22;7019;50.766;4.474;2023-07-13T03:08:48;14.10;99.90
13898;DHT22;7019;50.766;4.474;2023-07-13T03:11:18;14.10;99.90
13898;DHT22;7019;50.766;4.474;2023-07-13T03:13:45;14.10;99.90
13898;DHT22;7019;50.766;4.474;2023-07-13T03:16:13;14.20;99.90
13898;DHT22;7019;50.766;4.474;2023-07-13T03:18:41;14.10;99.90
13898;DHT22;7019;50.766;4.474;2023-07-13T03:21:09;14.10;99.90
13898;DHT22;7019;50.766;4.474;2023-07-13T03:23:38;14.20;99.90
13898;DHT22;7019;50.766;4.474;2023-07-13T03:26:06;14.10;99.90
13898;DHT22;7019;50.766;4.474;2023-07-13T03:28:34;14.10;99.90
13898;DHT22;7019;50.766;4.474;2023-07-13T03:31:03;14.10;99.90
13898;DHT22;7019;50.766;4.474;2023-07-13T03:33:31;14.10;99.90
13898;DHT22;7019;50.766;4.474;2023-07-13T03:35:58;14.10;99.90
13898;DHT22;7019;50.766;4.474;2023-07-13T03:38:25;14.10;99.90
13898;DHT22;7019;50.766;4.474;2023-07-13T03:40:54;14.20;99.90
13898;DHT22;7019;50.766;4.474;2023-07-13T03:43:21;14.20;99.90
13898;DHT22;7019;50.766;4.474;2023-07-13T03:45:48;14.10;99.90
13898;DHT22;7019;50.766;4.474;2023-07-13T03:48:15;14.10;99.90
13898;DHT22;7019;50.766;4.474;2023-07-13T03:50:42;14.10;99.90
13898;DHT22;7019;50.766;4.474;2023-07-13T03:53:09;14.10;99.90
13898;DHT22;7019;50.766;4.474;2023-07-13T03:55:36;14.10;99.90
13898;DHT22;7019;50.766;4.474;2023-07-13T03:58:32;14.10;99.90
13898;DHT22;7019;50.766;4.474;2023-07-13T04:01:01;14.20;99.90
13898;DHT22;7019;50.766;4.474;2023-07-13T04:03:28;14.30;99.90
13898;DHT22;7019;50.766;4.474;2023-07-13T04:05:58;14.40;99.90
13898;DHT22;7019;50.766;4.474;2023-07-13T04:08:27;14.40;99.90
13898;DHT22;7019;50.766;4.474;2023-07-13T04:10:54;14.50;99.90
13898;DHT22;7019;50.766;4.474;2023-07-13T04:13:21;14.60;99.90
13898;DHT22;7019;50.766;4.474;2023-07-13T04:15:50;14.60;99.90
13898;DHT22;7019;50.766;4.474;2023-07-13T04:18:17;14.70;99.90
13898;DHT22;7019;50.766;4.474;2023-07-13T04:20:45;14.80;99.90
13898;DHT22;7019;50.766;4.474;2023-07-13T04:23:12;14.80;99.90
13898;DHT22;7019;50.766;4.474;2023-07-13T04:25:43;14.80;99.90
13898;DHT22;7019;50.766;4.474;2023-07-13T04:28:10;14.90;99.90
13898;DHT22;7019;50.766;4.474;2023-07-13T04:30:37;15.00;99.90
13898;DHT22;7019;50.766;4.474;2023-07-13T04:33:05;15.00;99.90
13898;DHT22;7019;50.766;4.474;2023-07-13T04:35:34;15.10;99.90
13898;DHT22;7019;50.766;4.474;2023-07-13T04:38:01;15.10;99.90
13898;DHT22;7019;50.766;4.474;2023-07-13T04:40:29;15.20;99.90
13898;DHT22;7019;50.766;4.474;2023-07-13T04:42:56;15.20;99.90
13898;DHT22;7019;50.766;4.474;2023-07-13T04:45:24;15.30;99.90
13898;DHT22;7019;50.766;4.474;2023-07-13T04:47:52;15.30;99.90
13898;DHT22;7019;50.766;4.474;2023-07-13T04:50:20;15.40;99.90
13898;DHT22;7019;50.766;4.474;2023-07-13T04:52:49;15.40;99.90
13898;DHT22;7019;50.766;4.474;2023-07-13T04:55:16;15.40;99.90
13898;DHT22;7019;50.766;4.474;2023-07-13T04:57:44;15.40;99.90
13898;DHT22;7019;50.766;4.474;2023-07-13T05:00:12;15.40;99.90
13898;DHT22;7019;50.766;4.474;2023-07-13T05:02:42;15.50;99.90
13898;DHT22;7019;50.766;4.474;2023-07-13T05:05:10;15.50;99.90
13898;DHT22;7019;50.766;4.474;2023-07-13T05:07:38;15.50;99.90
13898;DHT22;7019;50.766;4.474;2023-07-13T05:10:07;15.50;99.90
13898;DHT22;7019;50.766;4.474;2023-07-13T05:12:34;15.50;99.90
13898;DHT22;7019;50.766;4.474;2023-07-13T05:15:01;15.60;99.90
13898;DHT22;7019;50.766;4.474;2023-07-13T05:17:28;15.60;99.90
13898;DHT22;7019;50.766;4.474;2023-07-13T05:19:55;15.60;99.90
13898;DHT22;7019;50.766;4.474;2023-07-13T05:22:22;15.70;99.90
13898;DHT22;7019;50.766;4.474;2023-07-13T05:24:51;15.80;99.90
13898;DHT22;7019;50.766;4.474;2023-07-13T05:27:18;15.80;99.90
13898;DHT22;7019;50.766;4.474;2023-07-13T05:29:45;15.90;99.90
13898;DHT22;7019;50.766;4.474;2023-07-13T05:32:12;16.00;99.90
13898;DHT22;7019;50.766;4.474;2023-07-13T05:34:39;16.10;99.90
13898;DHT22;7019;50.766;4.474;2023-07-13T05:37:07;16.20;99.90
13898;DHT22;7019;50.766;4.474;2023-07-13T05:39:35;16.30;99.90
13898;DHT22;7019;50.766;4.474;2023-07-13T05:42:04;16.40;99.90
13898;DHT22;7019;50.766;4.474;2023-07-13T05:44:31;16.50;99.90
13898;DHT22;7019;50.766;4.474;2023-07-13T05:46:58;16.50;99.90
13898;DHT22;7019;50.766;4.474;2023-07-13T05:49:25;16.60;99.90
13898;DHT22;7019;50.766;4.474;2023-07-13T05:51:52;16.60;99.90
13898;DHT22;7019;50.766;4.474;2023-07-13T05:54:19;16.60;99.90
13898;DHT22;7019;50.766;4.474;2023-07-13T05:56:47;16.70;99.90
13898;DHT22;7019;50.766;4.474;2023-07-13T05:59:15;16.70;99.90
13898;DHT22;7019;50.766;4.474;2023-07-13T06:01:42;16.80;99.90
13898;DHT22;7019;50.766;4.474;2023-07-13T06:04:09;16.80;99.90
13898;DHT22;7019;50.766;4.474;2023-07-13T06:06:36;16.90;99.90
13898;DHT22;7019;50.766;4.474;2023-07-13T06:09:03;16.90;99.90
13898;DHT22;7019;50.766;4.474;2023-07-13T06:11:31;17.00;99.90
13898;DHT22;7019;50.766;4.474;2023-07-13T06:13:58;17.00;99.90
13898;DHT22;7019;50.766;4.474;2023-07-13T06:16:28;17.00;99.90
13898;DHT22;7019;50.766;4.474;2023-07-13T06:18:55;17.10;99.90
13898;DHT22;7019;50.766;4.474;2023-07-13T06:21:23;17.10;99.90
13898;DHT22;7019;50.766;4.474;2023-07-13T06:23:51;17.10;99.90
13898;DHT22;7019;50.766;4.474;2023-07-13T06:26:20;17.10;99.90
13898;DHT22;7019;50.766;4.474;2023-07-13T06:28:47;17.10;99.90
13898;DHT22;7019;50.766;4.474;2023-07-13T06:31:15;17.20;99.90
13898;DHT22;7019;50.766;4.474;2023-07-13T06:33:44;17.30;99.90
13898;DHT22;7019;50.766;4.474;2023-07-13T06:36:11;17.30;99.90
13898;DHT22;7019;50.766;4.474;2023-07-13T06:38:38;17.40;99.90
13898;DHT22;7019;50.766;4.474;2023-07-13T06:41:07;17.50;99.90
13898;DHT22;7019;50.766;4.474;2023-07-13T06:43:34;17.60;99.90
13898;DHT22;7019;50.766;4.474;2023-07-13T06:46:01;17.80;99.90
13898;DHT22;7019;50.766;4.474;2023-07-13T06:48:28;17.90;99.90
13898;DHT22;7019;50.766;4.474;2023-07-13T06:50:57;18.00;99.90
13898;DHT22;7019;50.766;4.474;2023-07-13T06:53:24;18.20;99.90
13898;DHT22;7019;50.766;4.474;2023-07-13T06:55:51;18.20;99.90
13898;DHT22;7019;50.766;4.474;2023-07-13T06:58:19;18.30;99.90
13898;DHT22;7019;50.766;4.474;2023-07-13T07:00:46;18.30;99.90
13898;DHT22;7019;50.766;4.474;2023-07-13T07:03:16;18.30;99.90
13898;DHT22;7019;50.766;4.474;2023-07-13T07:05:43;18.40;99.90
13898;DHT22;7019;50.766;4.474;2023-07-13T07:08:12;18.40;99.90
13898;DHT22;7019;50.766;4.474;2023-07-13T07:10:40;18.40;99.90
13898;DHT22;7019;50.766;4.474;2023-07-13T07:13:07;18.40;99.90
13898;DHT22;7019;50.766;4.474;2023-07-13T07:15:34;18.50;99.90
13898;DHT22;7019;50.766;4.474;2023-07-13T07:18:02;18.60;99.90
13898;DHT22;7019;50.766;4.474;2023-07-13T07:20:29;18.80;99.90
13898;DHT22;7019;50.766;4.474;2023-07-13T07:22:58;18.90;99.90
13898;DHT22;7019;50.766;4.474;2023-07-13T07:25:27;19.00;99.90
13898;DHT22;7019;50.766;4.474;2023-07-13T07:27:57;19.00;99.90
13898;DHT22;7019;50.766;4.474;2023-07-13T07:30:24;19.10;99.90
13898;DHT22;7019;50.766;4.474;2023-07-13T07:32:52;19.10;99.90
13898;DHT22;7019;50.766;4.474;2023-07-13T07:35:19;19.10;99.90
13898;DHT22;7019;50.766;4.474;2023-07-13T07:37:46;19.10;99.90
13898;DHT22;7019;50.766;4.474;2023-07-13T07:40:13;19.20;99.90
13898;DHT22;7019;50.766;4.474;2023-07-13T07:42:41;19.20;99.90
13898;DHT22;7019;50.766;4.474;2023-07-13T07:45:09;19.30;99.90
13898;DHT22;7019;50.766;4.474;2023-07-13T07:47:37;19.40;99.90
13898;DHT22;7019;50.766;4.474;2023-07-13T07:50:05;19.60;99.90
13898;DHT22;7019;50.766;4.474;2023-07-13T07:52:32;19.60;99.90
13898;DHT22;7019;50.766;4.474;2023-07-13T07:54:59;19.50;99.90
13898;DHT22;7019;50.766;4.474;2023-07-13T07:57:26;19.60;99.90
13898;DHT22;7019;50.766;4.474;2023-07-13T07:59:54;19.90;99.90
13898;DHT22;7019;50.766;4.474;2023-07-13T08:02:21;20.10;99.90
13898;DHT22;7019;50.766;4.474;2023-07-13T08:04:48;20.40;99.90
13898;DHT22;7019;50.766;4.474;2023-07-13T08:07:15;20.70;99.90
13898;DHT22;7019;50.766;4.474;2023-07-13T08:09:42;20.80;99.90
13898;DHT22;7019;50.766;4.474;2023-07-13T08:12:10;20.70;99.90
13898;DHT22;7019;50.766;4.474;2023-07-13T08:14:37;20.80;99.90
13898;DHT22;7019;50.766;4.474;2023-07-13T08:17:05;21.30;99.90
13898;DHT22;7019;50.766;4.474;2023-07-13T08:19:32;21.90;99.90
13898;DHT22;7019;50.766;4.474;2023-07-13T08:21:59;22.60;99.90
13898;DHT22;7019;50.766;4.474;2023-07-13T08:24:26;23.20;99.90
13898;DHT22;7019;50.766;4.474;2023-07-13T08:26:53;23.30;99.90
13898;DHT22;7019;50.766;4.474;2023-07-13T08:29:20;23.40;99.90
13898;DHT22;7019;50.766;4.474;2023-07-13T08:31:48;23.30;99.90
13898;DHT22;7019;50.766;4.474;2023-07-13T08:34:17;23.80;99.90
13898;DHT22;7019;50.766;4.474;2023-07-13T08:36:44;24.10;99.90
13898;DHT22;7019;50.766;4.474;2023-07-13T08:39:11;24.00;99.90
13898;DHT22;7019;50.766;4.474;2023-07-13T08:41:38;23.80;99.90
13898;DHT22;7019;50.766;4.474;2023-07-13T08:44:18;23.50;99.90
13898;DHT22;7019;50.766;4.474;2023-07-13T08:46:46;23.40;99.90
13898;DHT22;7019;50.766;4.474;2023-07-13T08:49:18;23.70;99.90
13898;DHT22;7019;50.766;4.474;2023-07-13T08:51:51;23.60;99.90
13898;DHT22;7019;50.766;4.474;2023-07-13T08:54:24;23.30;99.90
13898;DHT22;7019;50.766;4.474;2023-07-13T08:56:54;23.70;99.90
13898;DHT22;7019;50.766;4.474;2023-07-13T08:59:25;24.00;99.90
13898;DHT22;7019;50.766;4.474;2023-07-13T09:02:01;23.90;99.90
13898;DHT22;7019;50.766;4.474;2023-07-13T09:04:37;23.80;99.90
13898;DHT22;7019;50.766;4.474;2023-07-13T09:07:14;24.20;99.90
13898;DHT22;7019;50.766;4.474;2023-07-13T09:09:53;24.60;99.90
13898;DHT22;7019;50.766;4.474;2023-07-13T09:12:27;25.10;99.90
13898;DHT22;7019;50.766;4.474;2023-07-13T09:15:00;25.20;99.90
13898;DHT22;7019;50.766;4.474;2023-07-13T09:17:33;24.70;99.90
13898;DHT22;7019;50.766;4.474;2023-07-13T09:20:08;24.80;99.90
13898;DHT22;7019;50.766;4.474;2023-07-13T09:22:38;24.80;99.90
13898;DHT22;7019;50.766;4.474;2023-07-13T09:25:13;25.10;99.90
13898;DHT22;7019;50.766;4.474;2023-07-13T09:27:48;25.00;99.90
13898;DHT22;7019;50.766;4.474;2023-07-13T09:30:24;25.30;99.90
13898;DHT22;7019;50.766;4.474;2023-07-13T09:32:54;25.40;99.90
13898;DHT22;7019;50.766;4.474;2023-07-13T09:35:27;24.90;99.90
13898;DHT22;7019;50.766;4.474;2023-07-13T09:37:58;24.50;99.90
13898;DHT22;7019;50.766;4.474;2023-07-13T09:40:35;24.70;99.90
13898;DHT22;7019;50.766;4.474;2023-07-13T09:43:03;25.30;99.90
13898;DHT22;7019;50.766;4.474;2023-07-13T09:45:34;25.70;99.90
13898;DHT22;7019;50.766;4.474;2023-07-13T09:48:05;25.90;99.90
13898;DHT22;7019;50.766;4.474;2023-07-13T09:50:35;25.50;99.90
13898;DHT22;7019;50.766;4.474;2023-07-13T09:53:02;25.80;99.90
13898;DHT22;7019;50.766;4.474;2023-07-13T09:55:32;25.90;99.90
13898;DHT22;7019;50.766;4.474;2023-07-13T09:58:04;25.30;99.90
13898;DHT22;7019;50.766;4.474;2023-07-13T10:00:32;24.80;99.90
13898;DHT22;7019;50.766;4.474;2023-07-13T10:03:02;25.00;99.90
13898;DHT22;7019;50.766;4.474;2023-07-13T10:05:39;25.50;99.90
13898;DHT22;7019;50.766;4.474;2023-07-13T10:08:16;26.40;99.90
13898;DHT22;7019;50.766;4.474;2023-07-13T10:10:44;26.80;99.90
13898;DHT22;7019;50.766;4.474;2023-07-13T10:13:29;26.80;99.90
13898;DHT22;7019;50.766;4.474;2023-07-13T10:15:59;26.90;99.40
13898;DHT22;7019;50.766;4.474;2023-07-13T10:18:26;27.10;99.40
13898;DHT22;7019;50.766;4.474;2023-07-13T10:21:09;27.30;99.90
13898;DHT22;7019;50.766;4.474;2023-07-13T10:23:37;27.40;98.10
13898;DHT22;7019;50.766;4.474;2023-07-13T10:26:05;26.80;98.70
13898;DHT22;7019;50.766;4.474;2023-07-13T10:28:38;26.50;99.00
13898;DHT22;7019;50.766;4.474;2023-07-13T10:31:10;26.30;98.20
13898;DHT22;7019;50.766;4.474;2023-07-13T10:33:38;26.40;99.50
13898;DHT22;7019;50.766;4.474;2023-07-13T10:36:23;26.70;98.70
13898;DHT22;7019;50.766;4.474;2023-07-13T10:38:54;26.80;99.40
13898;DHT22;7019;50.766;4.474;2023-07-13T10:41:25;26.70;98.60
13898;DHT22;7019;50.766;4.474;2023-07-13T10:43:54;26.60;99.10
13898;DHT22;7019;50.766;4.474;2023-07-13T10:46:25;26.70;98.70
13898;DHT22;7019;50.766;4.474;2023-07-13T10:48:57;26.80;99.30
13898;DHT22;7019;50.766;4.474;2023-07-13T10:51:27;26.90;98.40
13898;DHT22;7019;50.766;4.474;2023-07-13T10:54:11;26.40;98.00
13898;DHT22;7019;50.766;4.474;2023-07-13T10:56:39;25.90;99.00
13898;DHT22;7019;50.766;4.474;2023-07-13T10:59:12;25.80;99.60
13898;DHT22;7019;50.766;4.474;2023-07-13T11:01:49;25.60;99.60
13898;DHT22;7019;50.766;4.474;2023-07-13T11:04:19;25.30;99.90
13898;DHT22;7019;50.766;4.474;2023-07-13T11:06:52;24.90;99.90
13898;DHT22;7019;50.766;4.474;2023-07-13T11:09:35;24.60;99.90
13898;DHT22;7019;50.766;4.474;2023-07-13T11:12:08;24.80;99.90
13898;DHT22;7019;50.766;4.474;2023-07-13T11:14:43;24.80;99.50
13898;DHT22;7019;50.766;4.474;2023-07-13T11:17:37;25.10;99.80
13898;DHT22;7019;50.766;4.474;2023-07-13T11:20:20;25.30;99.00
13898;DHT22;7019;50.766;4.474;2023-07-13T11:22:52;25.40;99.90
13898;DHT22;7019;50.766;4.474;2023-07-13T11:25:28;25.40;99.90
13898;DHT22;7019;50.766;4.474;2023-07-13T11:28:14;25.60;99.70
13898;DHT22;7019;50.766;4.474;2023-07-13T11:30:44;26.00;99.60
13898;DHT22;7019;50.766;4.474;2023-07-13T11:33:18;25.60;98.30
13898;DHT22;7019;50.766;4.474;2023-07-13T11:35:56;25.40;99.90
13898;DHT22;7019;50.766;4.474;2023-07-13T11:38:32;25.60;99.30
13898;DHT22;7019;50.766;4.474;2023-07-13T11:41:03;26.10;99.40
13898;DHT22;7019;50.766;4.474;2023-07-13T11:43:30;26.30;99.60
13898;DHT22;7019;50.766;4.474;2023-07-13T11:46:12;26.50;98.40
13898;DHT22;7019;50.766;4.474;2023-07-13T11:48:39;26.40;99.90
13898;DHT22;7019;50.766;4.474;2023-07-13T11:51:09;26.30;98.10
13898;DHT22;7019;50.766;4.474;2023-07-13T11:53:47;25.70;99.00
13898;DHT22;7019;50.766;4.474;2023-07-13T11:56:15;25.20;99.00
13898;DHT22;7019;50.766;4.474;2023-07-13T11:58:43;24.90;99.40
13898;DHT22;7019;50.766;4.474;2023-07-13T12:01:18;24.70;99.90
13898;DHT22;7019;50.766;4.474;2023-07-13T12:03:46;24.80;99.90
13898;DHT22;7019;50.766;4.474;2023-07-13T12:06:26;24.60;98.30
13898;DHT22;7019;50.766;4.474;2023-07-13T12:08:58;24.40;99.00
13898;DHT22;7019;50.766;4.474;2023-07-13T12:11:26;24.10;99.30
13898;DHT22;7019;50.766;4.474;2023-07-13T12:13:54;24.20;99.90
13898;DHT22;7019;50.766;4.474;2023-07-13T12:16:30;24.20;99.20
13898;DHT22;7019;50.766;4.474;2023-07-13T12:18:59;24.10;99.90
13898;DHT22;7019;50.766;4.474;2023-07-13T12:21:31;24.40;99.80
13898;DHT22;7019;50.766;4.474;2023-07-13T12:24:00;24.50;99.80
13898;DHT22;7019;50.766;4.474;2023-07-13T12:26:29;24.60;99.30
13898;DHT22;7019;50.766;4.474;2023-07-13T12:28:59;24.60;98.70
13898;DHT22;7019;50.766;4.474;2023-07-13T12:31:33;24.60;98.10
13898;DHT22;7019;50.766;4.474;2023-07-13T12:34:02;24.70;98.90
13898;DHT22;7019;50.766;4.474;2023-07-13T12:36:32;24.80;98.60
13898;DHT22;7019;50.766;4.474;2023-07-13T12:39:06;25.00;98.80
13898;DHT22;7019;50.766;4.474;2023-07-13T12:41:38;25.10;99.40
13898;DHT22;7019;50.766;4.474;2023-07-13T12:44:10;25.00;99.10
13898;DHT22;7019;50.766;4.474;2023-07-13T12:46:38;24.80;98.60
13898;DHT22;7019;50.766;4.474;2023-07-13T12:49:07;24.50;98.30
13898;DHT22;7019;50.766;4.474;2023-07-13T12:51:35;24.20;98.30
13898;DHT22;7019;50.766;4.474;2023-07-13T12:54:15;24.00;99.10
13898;DHT22;7019;50.766;4.474;2023-07-13T12:56:43;23.60;99.00
13898;DHT22;7019;50.766;4.474;2023-07-13T12:59:17;23.40;99.90
13898;DHT22;7019;50.766;4.474;2023-07-13T13:01:46;22.80;99.90
13898;DHT22;7019;50.766;4.474;2023-07-13T13:04:15;22.20;99.90
13898;DHT22;7019;50.766;4.474;2023-07-13T13:06:47;21.90;99.90
13898;DHT22;7019;50.766;4.474;2023-07-13T13:09:17;21.50;99.90
13898;DHT22;7019;50.766;4.474;2023-07-13T13:11:46;21.50;99.90
13898;DHT22;7019;50.766;4.474;2023-07-13T13:14:13;21.80;99.90
13898;DHT22;7019;50.766;4.474;2023-07-13T13:16:46;22.30;99.90
13898;DHT22;7019;50.766;4.474;2023-07-13T13:19:18;23.10;99.90
13898;DHT22;7019;50.766;4.474;2023-07-13T13:21:47;23.80;99.90
13898;DHT22;7019;50.766;4.474;2023-07-13T13:24:18;24.30;99.90
13898;DHT22;7019;50.766;4.474;2023-07-13T13:26:47;24.40;99.90
13898;DHT22;7019;50.766;4.474;2023-07-13T13:29:17;24.30;99.90
13898;DHT22;7019;50.766;4.474;2023-07-13T13:31:45;24.40;99.90
13898;DHT22;7019;50.766;4.474;2023-07-13T13:34:13;24.40;99.90
13898;DHT22;7019;50.766;4.474;2023-07-13T13:36:41;24.60;99.90
13898;DHT22;7019;50.766;4.474;2023-07-13T13:39:20;24.70;99.90
13898;DHT22;7019;50.766;4.474;2023-07-13T13:41:49;24.90;99.90
13898;DHT22;7019;50.766;4.474;2023-07-13T13:44:17;25.00;99.90
13898;DHT22;7019;50.766;4.474;2023-07-13T13:46:46;25.00;99.90
13898;DHT22;7019;50.766;4.474;2023-07-13T13:49:15;25.00;99.90
13898;DHT22;7019;50.766;4.474;2023-07-13T13:51:43;25.00;99.90
13898;DHT22;7019;50.766;4.474;2023-07-13T13:54:12;25.20;99.90
13898;DHT22;7019;50.766;4.474;2023-07-13T13:56:43;25.50;99.90
13898;DHT22;7019;50.766;4.474;2023-07-13T13:59:10;25.70;99.90
13898;DHT22;7019;50.766;4.474;2023-07-13T14:01:38;25.80;99.90
13898;DHT22;7019;50.766;4.474;2023-07-13T14:04:06;25.60;99.80
13898;DHT22;7019;50.766;4.474;2023-07-13T14:06:34;25.60;99.90
13898;DHT22;7019;50.766;4.474;2023-07-13T14:09:01;25.30;99.50
13898;DHT22;7019;50.766;4.474;2023-07-13T14:11:30;25.00;99.90
13898;DHT22;7019;50.766;4.474;2023-07-13T14:14:00;25.20;99.90
13898;DHT22;7019;50.766;4.474;2023-07-13T14:16:31;25.00;99.20
13898;DHT22;7019;50.766;4.474;2023-07-13T14:18:59;25.00;99.90
13898;DHT22;7019;50.766;4.474;2023-07-13T14:21:28;24.90;99.90
13898;DHT22;7019;50.766;4.474;2023-07-13T14:23:55;24.70;99.90
13898;DHT22;7019;50.766;4.474;2023-07-13T14:26:24;24.40;99.90
13898;DHT22;7019;50.766;4.474;2023-07-13T14:28:53;24.00;99.90
13898;DHT22;7019;50.766;4.474;2023-07-13T14:31:24;23.60;99.10
13898;DHT22;7019;50.766;4.474;2023-07-13T14:33:51;23.40;99.90
13898;DHT22;7019;50.766;4.474;2023-07-13T14:36:28;23.20;99.90
13898;DHT22;7019;50.766;4.474;2023-07-13T14:38:56;23.00;99.90
13898;DHT22;7019;50.766;4.474;2023-07-13T14:41:24;22.90;99.90
13898;DHT22;7019;50.766;4.474;2023-07-13T14:43:51;22.60;99.90
13898;DHT22;7019;50.766;4.474;2023-07-13T14:46:30;22.20;99.90
13898;DHT22;7019;50.766;4.474;2023-07-13T14:49:02;21.90;99.90
13898;DHT22;7019;50.766;4.474;2023-07-13T14:51:30;21.80;99.90
13898;DHT22;7019;50.766;4.474;2023-07-13T14:53:57;21.60;99.90
13898;DHT22;7019;50.766;4.474;2023-07-13T14:56:25;21.50;99.90
13898;DHT22;7019;50.766;4.474;2023-07-13T14:58:52;21.50;99.90
13898;DHT22;7019;50.766;4.474;2023-07-13T15:01:20;21.50;99.90
13898;DHT22;7019;50.766;4.474;2023-07-13T15:03:51;21.40;99.90
13898;DHT22;7019;50.766;4.474;2023-07-13T15:06:19;21.30;99.90
13898;DHT22;7019;50.766;4.474;2023-07-13T15:08:46;21.20;99.90
13898;DHT22;7019;50.766;4.474;2023-07-13T15:11:17;21.20;99.90
13898;DHT22;7019;50.766;4.474;2023-07-13T15:13:45;21.00;99.90
13898;DHT22;7019;50.766;4.474;2023-07-13T15:16:16;21.00;99.90
13898;DHT22;7019;50.766;4.474;2023-07-13T15:18:44;20.90;99.90
13898;DHT22;7019;50.766;4.474;2023-07-13T15:21:19;20.70;99.90
13898;DHT22;7019;50.766;4.474;2023-07-13T15:23:47;20.60;99.90
13898;DHT22;7019;50.766;4.474;2023-07-13T15:26:14;20.50;99.90
13898;DHT22;7019;50.766;4.474;2023-07-13T15:28:42;20.30;99.90
13898;DHT22;7019;50.766;4.474;2023-07-13T15:31:19;20.30;99.90
13898;DHT22;7019;50.766;4.474;2023-07-13T15:33:46;20.50;99.90
13898;DHT22;7019;50.766;4.474;2023-07-13T15:36:17;20.80;99.90
13898;DHT22;7019;50.766;4.474;2023-07-13T15:38:45;21.20;99.90
13898;DHT22;7019;50.766;4.474;2023-07-13T15:41:20;21.30;99.90
13898;DHT22;7019;50.766;4.474;2023-07-13T15:43:49;21.50;99.90
13898;DHT22;7019;50.766;4.474;2023-07-13T15:46:18;21.60;99.90
13898;DHT22;7019;50.766;4.474;2023-07-13T15:48:47;21.70;99.90
13898;DHT22;7019;50.766;4.474;2023-07-13T15:51:20;22.00;99.90
13898;DHT22;7019;50.766;4.474;2023-07-13T15:53:52;22.30;99.90
13898;DHT22;7019;50.766;4.474;2023-07-13T15:56:22;22.60;99.90
13898;DHT22;7019;50.766;4.474;2023-07-13T15:58:50;22.90;99.90
13898;DHT22;7019;50.766;4.474;2023-07-13T16:01:18;23.30;99.90